LIPK/FRL METAR and TAF weather

Enter ICAO airport designator
Station Type Date Time Source
LIPK METAR 2019/02/15 16:50 UTC NOAA

LIPK 151650Z 08006KT 5000 BR NSC 10/M01 Q1031


Station Type Date Time Source
LIPK Decoded METAR 2019/02/15 16:50 UTC NOAA

Forli, Italy (LIPK) 44-12N 012-04E 32M
Feb 15, 2019 - 11:50 AM EST / 2019.02.15 1650 UTC
Wind: from the E (080 degrees) at 7 MPH (6 KT):0
Visibility: 3 mile(s):0
Weather: mist
Temperature: 50 F (10 C)
Dew Point: 30 F (-1 C)
Relative Humidity: 46%
Pressure (altimeter): 30.45 in. Hg (1031 hPa)
ob: LIPK 151650Z 08006KT 5000 BR NSC 10/M01 Q1031
cycle: 17

Station Type Date Time Source
LIPK TAF 2015/04/01 12:08 UTC NOAA

TAF LIPK 011301Z 0112/0212 30020G32KT CAVOK
BECMG 0115/0117 30012KT
BECMG 0117/0119 VRB05KT


Example: see airport list